sensor_id;sensor_type;location;lat;lon;timestamp;temperature;humidity
45729;DHT22;31439;53.512;10.206;2023-09-30T00:01:45;14.90;99.90
45729;DHT22;31439;53.512;10.206;2023-09-30T00:04:11;14.80;99.90
45729;DHT22;31439;53.512;10.206;2023-09-30T00:06:37;14.80;99.90
45729;DHT22;31439;53.512;10.206;2023-09-30T00:09:02;14.80;99.90
45729;DHT22;31439;53.512;10.206;2023-09-30T00:11:28;14.70;99.90
45729;DHT22;31439;53.512;10.206;2023-09-30T00:13:54;14.70;99.90
45729;DHT22;31439;53.512;10.206;2023-09-30T00:16:19;14.70;99.90
45729;DHT22;31439;53.512;10.206;2023-09-30T00:18:45;14.70;99.90
45729;DHT22;31439;53.512;10.206;2023-09-30T00:21:11;14.70;99.90
45729;DHT22;31439;53.512;10.206;2023-09-30T00:23:37;14.60;99.90
45729;DHT22;31439;53.512;10.206;2023-09-30T00:26:03;14.60;99.90
45729;DHT22;31439;53.512;10.206;2023-09-30T00:28:29;14.60;99.90
45729;DHT22;31439;53.512;10.206;2023-09-30T00:30:54;14.60;99.90
45729;DHT22;31439;53.512;10.206;2023-09-30T00:33:20;14.60;99.90
45729;DHT22;31439;53.512;10.206;2023-09-30T00:35:45;14.60;99.90
45729;DHT22;31439;53.512;10.206;2023-09-30T00:38:11;14.60;99.90
45729;DHT22;31439;53.512;10.206;2023-09-30T00:40:37;14.50;99.90
45729;DHT22;31439;53.512;10.206;2023-09-30T00:43:03;14.50;99.90
45729;DHT22;31439;53.512;10.206;2023-09-30T00:45:29;14.50;99.90
45729;DHT22;31439;53.512;10.206;2023-09-30T00:47:55;14.40;99.90
45729;DHT22;31439;53.512;10.206;2023-09-30T00:50:21;14.50;99.90
45729;DHT22;31439;53.512;10.206;2023-09-30T00:52:48;14.50;99.90
45729;DHT22;31439;53.512;10.206;2023-09-30T00:55:14;14.50;99.90
45729;DHT22;31439;53.512;10.206;2023-09-30T00:57:40;14.60;99.90
45729;DHT22;31439;53.512;10.206;2023-09-30T01:00:07;14.50;99.90
45729;DHT22;31439;53.512;10.206;2023-09-30T01:02:40;14.50;99.90
45729;DHT22;31439;53.512;10.206;2023-09-30T01:05:09;14.50;99.90
45729;DHT22;31439;53.512;10.206;2023-09-30T01:07:35;14.40;99.90
45729;DHT22;31439;53.512;10.206;2023-09-30T01:10:01;14.50;99.90
45729;DHT22;31439;53.512;10.206;2023-09-30T01:12:27;14.40;99.90
45729;DHT22;31439;53.512;10.206;2023-09-30T01:14:59;14.40;99.90
45729;DHT22;31439;53.512;10.206;2023-09-30T01:17:25;14.40;99.90
45729;DHT22;31439;53.512;10.206;2023-09-30T01:19:51;14.40;99.90
45729;DHT22;31439;53.512;10.206;2023-09-30T01:22:17;14.40;99.90
45729;DHT22;31439;53.512;10.206;2023-09-30T01:24:43;14.30;99.90
45729;DHT22;31439;53.512;10.206;2023-09-30T01:27:13;14.30;99.90
45729;DHT22;31439;53.512;10.206;2023-09-30T01:29:39;14.30;99.90
45729;DHT22;31439;53.512;10.206;2023-09-30T01:32:05;14.30;99.90
45729;DHT22;31439;53.512;10.206;2023-09-30T01:34:34;14.30;99.90
45729;DHT22;31439;53.512;10.206;2023-09-30T01:37:00;14.40;99.90
45729;DHT22;31439;53.512;10.206;2023-09-30T01:39:26;14.30;99.90
45729;DHT22;31439;53.512;10.206;2023-09-30T01:41:51;14.20;99.90
45729;DHT22;31439;53.512;10.206;2023-09-30T01:44:17;14.20;99.90
45729;DHT22;31439;53.512;10.206;2023-09-30T01:46:43;14.20;99.90
45729;DHT22;31439;53.512;10.206;2023-09-30T01:49:08;14.30;99.90
45729;DHT22;31439;53.512;10.206;2023-09-30T01:51:34;14.30;99.90
45729;DHT22;31439;53.512;10.206;2023-09-30T01:53:59;14.30;99.90
45729;DHT22;31439;53.512;10.206;2023-09-30T01:56:25;14.30;99.90
45729;DHT22;31439;53.512;10.206;2023-09-30T01:58:51;14.20;99.90
45729;DHT22;31439;53.512;10.206;2023-09-30T02:01:16;14.20;99.90
45729;DHT22;31439;53.512;10.206;2023-09-30T02:03:42;14.20;99.90
45729;DHT22;31439;53.512;10.206;2023-09-30T02:06:08;14.20;99.90
45729;DHT22;31439;53.512;10.206;2023-09-30T02:08:33;14.20;99.90
45729;DHT22;31439;53.512;10.206;2023-09-30T02:11:02;14.10;99.90
45729;DHT22;31439;53.512;10.206;2023-09-30T02:13:28;14.10;99.90
45729;DHT22;31439;53.512;10.206;2023-09-30T02:15:53;14.00;99.90
45729;DHT22;31439;53.512;10.206;2023-09-30T02:18:21;13.90;99.90
45729;DHT22;31439;53.512;10.206;2023-09-30T02:20:49;14.00;99.90
45729;DHT22;31439;53.512;10.206;2023-09-30T02:23:17;13.90;99.90
45729;DHT22;31439;53.512;10.206;2023-09-30T02:25:42;13.90;99.90
45729;DHT22;31439;53.512;10.206;2023-09-30T02:28:08;14.00;99.90
45729;DHT22;31439;53.512;10.206;2023-09-30T02:30:34;14.00;99.90
45729;DHT22;31439;53.512;10.206;2023-09-30T02:33:00;13.90;99.90
45729;DHT22;31439;53.512;10.206;2023-09-30T02:35:26;13.90;99.90
45729;DHT22;31439;53.512;10.206;2023-09-30T02:37:52;13.90;99.90
45729;DHT22;31439;53.512;10.206;2023-09-30T02:40:18;13.90;99.90
45729;DHT22;31439;53.512;10.206;2023-09-30T02:42:45;13.90;99.90
45729;DHT22;31439;53.512;10.206;2023-09-30T02:45:12;13.80;99.90
45729;DHT22;31439;53.512;10.206;2023-09-30T02:47:38;13.80;99.90
45729;DHT22;31439;53.512;10.206;2023-09-30T02:50:08;13.60;99.90
45729;DHT22;31439;53.512;10.206;2023-09-30T02:52:36;13.70;99.90
45729;DHT22;31439;53.512;10.206;2023-09-30T02:55:02;13.70;99.90
45729;DHT22;31439;53.512;10.206;2023-09-30T02:57:28;13.70;99.90
45729;DHT22;31439;53.512;10.206;2023-09-30T02:59:54;13.70;99.90
45729;DHT22;31439;53.512;10.206;2023-09-30T03:02:20;13.70;99.90
45729;DHT22;31439;53.512;10.206;2023-09-30T03:04:47;13.60;99.90
45729;DHT22;31439;53.512;10.206;2023-09-30T03:07:13;13.60;99.90
45729;DHT22;31439;53.512;10.206;2023-09-30T03:09:39;13.70;99.90
45729;DHT22;31439;53.512;10.206;2023-09-30T03:12:05;13.70;99.90
45729;DHT22;31439;53.512;10.206;2023-09-30T03:14:31;13.70;99.90
45729;DHT22;31439;53.512;10.206;2023-09-30T03:17:00;13.70;99.90
45729;DHT22;31439;53.512;10.206;2023-09-30T03:19:25;13.70;99.90
45729;DHT22;31439;53.512;10.206;2023-09-30T03:21:51;13.60;99.90
45729;DHT22;31439;53.512;10.206;2023-09-30T03:24:17;13.60;99.90
45729;DHT22;31439;53.512;10.206;2023-09-30T03:26:42;13.50;99.90
45729;DHT22;31439;53.512;10.206;2023-09-30T03:29:09;13.50;99.90
45729;DHT22;31439;53.512;10.206;2023-09-30T03:31:36;13.40;99.90
45729;DHT22;31439;53.512;10.206;2023-09-30T03:34:05;13.30;99.90
45729;DHT22;31439;53.512;10.206;2023-09-30T03:36:30;13.40;99.90
45729;DHT22;31439;53.512;10.206;2023-09-30T03:38:57;13.40;99.90
45729;DHT22;31439;53.512;10.206;2023-09-30T03:41:25;13.30;99.90
45729;DHT22;31439;53.512;10.206;2023-09-30T03:43:51;13.30;99.90
45729;DHT22;31439;53.512;10.206;2023-09-30T03:46:17;13.40;99.90
45729;DHT22;31439;53.512;10.206;2023-09-30T03:48:43;13.30;99.90
45729;DHT22;31439;53.512;10.206;2023-09-30T03:51:10;13.30;99.90
45729;DHT22;31439;53.512;10.206;2023-09-30T03:53:39;13.30;99.90
45729;DHT22;31439;53.512;10.206;2023-09-30T03:56:05;13.30;99.90
45729;DHT22;31439;53.512;10.206;2023-09-30T03:58:32;13.30;99.90
45729;DHT22;31439;53.512;10.206;2023-09-30T04:00:58;13.40;99.90
45729;DHT22;31439;53.512;10.206;2023-09-30T04:03:24;13.40;99.90
45729;DHT22;31439;53.512;10.206;2023-09-30T04:05:50;13.40;99.90
45729;DHT22;31439;53.512;10.206;2023-09-30T04:08:16;13.40;99.90
45729;DHT22;31439;53.512;10.206;2023-09-30T04:10:42;13.30;99.90
45729;DHT22;31439;53.512;10.206;2023-09-30T04:13:09;13.30;99.90
45729;DHT22;31439;53.512;10.206;2023-09-30T04:15:37;13.40;99.90
45729;DHT22;31439;53.512;10.206;2023-09-30T04:18:03;13.30;99.90
45729;DHT22;31439;53.512;10.206;2023-09-30T04:20:30;13.30;99.90
45729;DHT22;31439;53.512;10.206;2023-09-30T04:22:56;13.40;99.90
45729;DHT22;31439;53.512;10.206;2023-09-30T04:25:23;13.30;99.90
45729;DHT22;31439;53.512;10.206;2023-09-30T04:27:50;13.30;99.90
45729;DHT22;31439;53.512;10.206;2023-09-30T04:30:16;13.30;99.90
45729;DHT22;31439;53.512;10.206;2023-09-30T04:32:42;13.30;99.90
45729;DHT22;31439;53.512;10.206;2023-09-30T04:35:08;13.40;99.90
45729;DHT22;31439;53.512;10.206;2023-09-30T04:37:34;13.50;99.90
45729;DHT22;31439;53.512;10.206;2023-09-30T04:40:05;13.40;99.90
45729;DHT22;31439;53.512;10.206;2023-09-30T04:42:43;13.40;99.90
45729;DHT22;31439;53.512;10.206;2023-09-30T04:45:13;13.40;99.90
45729;DHT22;31439;53.512;10.206;2023-09-30T04:47:42;13.50;99.90
45729;DHT22;31439;53.512;10.206;2023-09-30T04:50:10;13.30;99.90
45729;DHT22;31439;53.512;10.206;2023-09-30T04:52:37;13.30;99.90
45729;DHT22;31439;53.512;10.206;2023-09-30T04:55:04;13.30;99.90
45729;DHT22;31439;53.512;10.206;2023-09-30T04:57:30;13.30;99.90
45729;DHT22;31439;53.512;10.206;2023-09-30T04:59:57;13.30;99.90
45729;DHT22;31439;53.512;10.206;2023-09-30T05:02:23;13.30;99.90
45729;DHT22;31439;53.512;10.206;2023-09-30T05:04:49;13.30;99.90
45729;DHT22;31439;53.512;10.206;2023-09-30T05:07:15;13.30;99.90
45729;DHT22;31439;53.512;10.206;2023-09-30T05:09:40;13.20;99.90
45729;DHT22;31439;53.512;10.206;2023-09-30T05:12:07;13.20;99.90
45729;DHT22;31439;53.512;10.206;2023-09-30T05:14:33;13.30;99.90
45729;DHT22;31439;53.512;10.206;2023-09-30T05:16:59;13.20;99.90
45729;DHT22;31439;53.512;10.206;2023-09-30T05:19:24;13.30;99.90
45729;DHT22;31439;53.512;10.206;2023-09-30T05:21:50;13.30;99.90
45729;DHT22;31439;53.512;10.206;2023-09-30T05:24:16;13.30;99.90
45729;DHT22;31439;53.512;10.206;2023-09-30T05:26:44;13.40;99.90
45729;DHT22;31439;53.512;10.206;2023-09-30T05:29:10;13.40;99.90
45729;DHT22;31439;53.512;10.206;2023-09-30T05:31:36;13.30;99.90
45729;DHT22;31439;53.512;10.206;2023-09-30T05:34:02;13.40;99.90
45729;DHT22;31439;53.512;10.206;2023-09-30T05:36:28;13.30;99.90
45729;DHT22;31439;53.512;10.206;2023-09-30T05:38:55;13.30;99.90
45729;DHT22;31439;53.512;10.206;2023-09-30T05:41:20;13.20;99.90
45729;DHT22;31439;53.512;10.206;2023-09-30T05:43:47;13.30;99.90
45729;DHT22;31439;53.512;10.206;2023-09-30T05:46:12;13.30;99.90
45729;DHT22;31439;53.512;10.206;2023-09-30T05:48:38;13.30;99.90
45729;DHT22;31439;53.512;10.206;2023-09-30T05:51:05;13.30;99.90
45729;DHT22;31439;53.512;10.206;2023-09-30T05:53:31;13.30;99.90
45729;DHT22;31439;53.512;10.206;2023-09-30T05:55:58;12.90;99.90
45729;DHT22;31439;53.512;10.206;2023-09-30T05:58:25;13.30;99.90
45729;DHT22;31439;53.512;10.206;2023-09-30T06:00:52;13.20;99.90
45729;DHT22;31439;53.512;10.206;2023-09-30T06:03:18;13.30;99.90
45729;DHT22;31439;53.512;10.206;2023-09-30T06:05:44;13.30;99.90
45729;DHT22;31439;53.512;10.206;2023-09-30T06:08:10;13.30;99.90
45729;DHT22;31439;53.512;10.206;2023-09-30T06:10:40;13.30;99.90
45729;DHT22;31439;53.512;10.206;2023-09-30T06:13:08;13.40;99.90
45729;DHT22;31439;53.512;10.206;2023-09-30T06:15:37;13.40;99.90
45729;DHT22;31439;53.512;10.206;2023-09-30T06:18:06;13.40;99.90
45729;DHT22;31439;53.512;10.206;2023-09-30T06:20:31;13.40;99.90
45729;DHT22;31439;53.512;10.206;2023-09-30T06:22:58;13.40;99.90
45729;DHT22;31439;53.512;10.206;2023-09-30T06:25:25;13.50;99.90
45729;DHT22;31439;53.512;10.206;2023-09-30T06:27:52;13.40;99.90
45729;DHT22;31439;53.512;10.206;2023-09-30T06:30:20;13.40;99.90
45729;DHT22;31439;53.512;10.206;2023-09-30T06:32:46;13.40;99.90
45729;DHT22;31439;53.512;10.206;2023-09-30T06:35:12;13.50;99.90
45729;DHT22;31439;53.512;10.206;2023-09-30T06:37:41;13.60;99.90
45729;DHT22;31439;53.512;10.206;2023-09-30T06:40:08;13.50;99.90
45729;DHT22;31439;53.512;10.206;2023-09-30T06:42:36;13.50;99.90
45729;DHT22;31439;53.512;10.206;2023-09-30T06:45:02;13.50;99.90
45729;DHT22;31439;53.512;10.206;2023-09-30T06:47:34;13.50;99.90
45729;DHT22;31439;53.512;10.206;2023-09-30T06:50:02;13.50;99.90
45729;DHT22;31439;53.512;10.206;2023-09-30T06:52:39;13.60;99.90
45729;DHT22;31439;53.512;10.206;2023-09-30T06:55:06;13.60;99.90
45729;DHT22;31439;53.512;10.206;2023-09-30T06:57:36;13.60;99.90
45729;DHT22;31439;53.512;10.206;2023-09-30T07:00:12;13.60;99.90
45729;DHT22;31439;53.512;10.206;2023-09-30T07:02:39;13.70;99.90
45729;DHT22;31439;53.512;10.206;2023-09-30T07:05:09;13.70;99.90
45729;DHT22;31439;53.512;10.206;2023-09-30T07:07:35;13.80;99.90
45729;DHT22;31439;53.512;10.206;2023-09-30T07:10:00;13.90;99.90
45729;DHT22;31439;53.512;10.206;2023-09-30T07:12:26;13.90;99.90
45729;DHT22;31439;53.512;10.206;2023-09-30T07:14:53;14.00;99.90
45729;DHT22;31439;53.512;10.206;2023-09-30T07:17:18;14.10;99.90
45729;DHT22;31439;53.512;10.206;2023-09-30T07:19:44;14.20;99.90
45729;DHT22;31439;53.512;10.206;2023-09-30T07:22:09;14.30;99.90
45729;DHT22;31439;53.512;10.206;2023-09-30T07:24:35;14.30;99.90
45729;DHT22;31439;53.512;10.206;2023-09-30T07:27:02;14.40;99.90
45729;DHT22;31439;53.512;10.206;2023-09-30T07:29:27;14.40;99.90
45729;DHT22;31439;53.512;10.206;2023-09-30T07:31:53;14.40;99.90
45729;DHT22;31439;53.512;10.206;2023-09-30T07:34:18;14.40;99.90
45729;DHT22;31439;53.512;10.206;2023-09-30T07:36:45;14.50;99.90
45729;DHT22;31439;53.512;10.206;2023-09-30T07:39:11;14.50;99.90
45729;DHT22;31439;53.512;10.206;2023-09-30T07:41:37;14.50;99.90
45729;DHT22;31439;53.512;10.206;2023-09-30T07:44:02;14.50;99.90
45729;DHT22;31439;53.512;10.206;2023-09-30T07:46:28;14.60;99.90
45729;DHT22;31439;53.512;10.206;2023-09-30T07:48:54;14.60;99.90
45729;DHT22;31439;53.512;10.206;2023-09-30T07:51:20;14.70;99.90
45729;DHT22;31439;53.512;10.206;2023-09-30T07:53:46;14.70;99.90
45729;DHT22;31439;53.512;10.206;2023-09-30T07:56:13;14.80;99.90
45729;DHT22;31439;53.512;10.206;2023-09-30T07:58:39;14.70;99.90
45729;DHT22;31439;53.512;10.206;2023-09-30T08:01:04;14.80;99.90
45729;DHT22;31439;53.512;10.206;2023-09-30T08:03:30;14.80;99.90
45729;DHT22;31439;53.512;10.206;2023-09-30T08:05:56;14.90;99.90
45729;DHT22;31439;53.512;10.206;2023-09-30T08:08:23;14.90;99.90
45729;DHT22;31439;53.512;10.206;2023-09-30T08:10:49;15.00;99.90
45729;DHT22;31439;53.512;10.206;2023-09-30T08:13:15;15.00;99.90
45729;DHT22;31439;53.512;10.206;2023-09-30T08:15:42;15.00;99.90
45729;DHT22;31439;53.512;10.206;2023-09-30T08:18:08;15.10;99.90
45729;DHT22;31439;53.512;10.206;2023-09-30T08:20:34;15.20;99.90
45729;DHT22;31439;53.512;10.206;2023-09-30T08:22:59;15.20;99.90
45729;DHT22;31439;53.512;10.206;2023-09-30T08:25:25;15.30;99.90
45729;DHT22;31439;53.512;10.206;2023-09-30T08:27:51;15.30;99.90
45729;DHT22;31439;53.512;10.206;2023-09-30T08:30:17;15.40;99.90
45729;DHT22;31439;53.512;10.206;2023-09-30T08:32:43;15.40;99.90
45729;DHT22;31439;53.512;10.206;2023-09-30T08:35:09;15.40;99.90
45729;DHT22;31439;53.512;10.206;2023-09-30T08:37:35;15.50;99.90
45729;DHT22;31439;53.512;10.206;2023-09-30T08:40:00;15.70;99.90
45729;DHT22;31439;53.512;10.206;2023-09-30T08:42:27;15.60;99.90
45729;DHT22;31439;53.512;10.206;2023-09-30T08:44:58;15.70;99.90
45729;DHT22;31439;53.512;10.206;2023-09-30T08:47:26;15.70;99.90
45729;DHT22;31439;53.512;10.206;2023-09-30T08:49:54;15.70;99.90
45729;DHT22;31439;53.512;10.206;2023-09-30T08:52:23;15.80;99.90
45729;DHT22;31439;53.512;10.206;2023-09-30T08:54:50;15.90;99.90
45729;DHT22;31439;53.512;10.206;2023-09-30T08:57:19;16.00;99.90
45729;DHT22;31439;53.512;10.206;2023-09-30T08:59:46;16.10;99.90
45729;DHT22;31439;53.512;10.206;2023-09-30T09:02:13;16.20;99.90
45729;DHT22;31439;53.512;10.206;2023-09-30T09:04:39;16.30;99.90
45729;DHT22;31439;53.512;10.206;2023-09-30T09:07:05;16.30;99.90
45729;DHT22;31439;53.512;10.206;2023-09-30T09:09:31;16.40;99.90
45729;DHT22;31439;53.512;10.206;2023-09-30T09:11:58;16.40;99.90
45729;DHT22;31439;53.512;10.206;2023-09-30T09:14:50;16.40;99.90
45729;DHT22;31439;53.512;10.206;2023-09-30T09:17:15;16.40;99.90
45729;DHT22;31439;53.512;10.206;2023-09-30T09:19:42;16.40;99.90
45729;DHT22;31439;53.512;10.206;2023-09-30T09:22:08;16.50;99.90
45729;DHT22;31439;53.512;10.206;2023-09-30T09:24:35;16.50;99.90
45729;DHT22;31439;53.512;10.206;2023-09-30T09:27:08;16.60;99.90
45729;DHT22;31439;53.512;10.206;2023-09-30T09:29:35;16.60;99.90
45729;DHT22;31439;53.512;10.206;2023-09-30T09:32:12;16.60;99.90
45729;DHT22;31439;53.512;10.206;2023-09-30T09:34:42;16.60;99.90
45729;DHT22;31439;53.512;10.206;2023-09-30T09:37:18;16.70;99.90
45729;DHT22;31439;53.512;10.206;2023-09-30T09:39:57;16.80;99.90
45729;DHT22;31439;53.512;10.206;2023-09-30T09:42:28;16.90;99.90
45729;DHT22;31439;53.512;10.206;2023-09-30T09:44:56;16.90;99.90
45729;DHT22;31439;53.512;10.206;2023-09-30T09:47:23;16.90;99.90
45729;DHT22;31439;53.512;10.206;2023-09-30T09:49:50;17.00;99.90
45729;DHT22;31439;53.512;10.206;2023-09-30T09:52:17;17.10;99.90
45729;DHT22;31439;53.512;10.206;2023-09-30T09:54:45;17.10;99.90
45729;DHT22;31439;53.512;10.206;2023-09-30T09:57:12;17.10;99.90
45729;DHT22;31439;53.512;10.206;2023-09-30T09:59:39;17.20;99.90
45729;DHT22;31439;53.512;10.206;2023-09-30T10:02:10;17.20;99.90
45729;DHT22;31439;53.512;10.206;2023-09-30T10:04:38;17.20;99.90
45729;DHT22;31439;53.512;10.206;2023-09-30T10:07:04;17.20;99.90
45729;DHT22;31439;53.512;10.206;2023-09-30T10:09:34;17.20;99.90
45729;DHT22;31439;53.512;10.206;2023-09-30T10:12:01;17.20;99.90
45729;DHT22;31439;53.512;10.206;2023-09-30T10:14:34;17.20;99.90
45729;DHT22;31439;53.512;10.206;2023-09-30T10:17:01;17.20;99.90
45729;DHT22;31439;53.512;10.206;2023-09-30T10:19:29;17.40;99.90
45729;DHT22;31439;53.512;10.206;2023-09-30T10:24:43;17.50;99.90
45729;DHT22;31439;53.512;10.206;2023-09-30T10:29:47;17.60;99.90
45729;DHT22;31439;53.512;10.206;2023-09-30T10:32:13;17.50;99.90
45729;DHT22;31439;53.512;10.206;2023-09-30T10:34:51;17.50;99.90
45729;DHT22;31439;53.512;10.206;2023-09-30T10:37:24;17.60;99.90
45729;DHT22;31439;53.512;10.206;2023-09-30T10:39:59;17.50;99.90
45729;DHT22;31439;53.512;10.206;2023-09-30T10:45:42;17.60;99.90
45729;DHT22;31439;53.512;10.206;2023-09-30T10:51:16;17.60;99.90
45729;DHT22;31439;53.512;10.206;2023-09-30T10:53:48;17.70;99.90
45729;DHT22;31439;53.512;10.206;2023-09-30T10:56:15;17.90;99.90
45729;DHT22;31439;53.512;10.206;2023-09-30T10:58:53;17.90;99.90
45729;DHT22;31439;53.512;10.206;2023-09-30T11:01:21;18.00;99.90
45729;DHT22;31439;53.512;10.206;2023-09-30T11:03:47;18.00;99.90
45729;DHT22;31439;53.512;10.206;2023-09-30T11:06:17;18.00;99.90
45729;DHT22;31439;53.512;10.206;2023-09-30T11:08:55;18.00;99.90
45729;DHT22;31439;53.512;10.206;2023-09-30T11:11:38;18.00;99.90
45729;DHT22;31439;53.512;10.206;2023-09-30T11:14:26;18.00;99.90
45729;DHT22;31439;53.512;10.206;2023-09-30T11:16:54;18.00;99.90
45729;DHT22;31439;53.512;10.206;2023-09-30T11:19:21;18.20;99.90
45729;DHT22;31439;53.512;10.206;2023-09-30T11:21:52;18.30;99.90
45729;DHT22;31439;53.512;10.206;2023-09-30T11:24:18;18.40;99.90
45729;DHT22;31439;53.512;10.206;2023-09-30T11:26:47;18.60;99.90
45729;DHT22;31439;53.512;10.206;2023-09-30T11:29:15;18.70;99.90
45729;DHT22;31439;53.512;10.206;2023-09-30T11:31:42;18.80;99.90
45729;DHT22;31439;53.512;10.206;2023-09-30T11:34:09;18.80;99.90
45729;DHT22;31439;53.512;10.206;2023-09-30T11:36:47;18.70;99.90
45729;DHT22;31439;53.512;10.206;2023-09-30T11:39:23;18.60;99.90
45729;DHT22;31439;53.512;10.206;2023-09-30T11:41:50;18.60;99.90
45729;DHT22;31439;53.512;10.206;2023-09-30T11:44:16;18.80;99.90
45729;DHT22;31439;53.512;10.206;2023-09-30T11:46:53;18.80;99.90
45729;DHT22;31439;53.512;10.206;2023-09-30T11:49:26;18.90;99.90
45729;DHT22;31439;53.512;10.206;2023-09-30T11:51:53;19.10;99.90
45729;DHT22;31439;53.512;10.206;2023-09-30T11:54:19;19.10;99.90
45729;DHT22;31439;53.512;10.206;2023-09-30T11:56:44;17.80;99.90
45729;DHT22;31439;53.512;10.206;2023-09-30T11:59:12;19.20;99.90
45729;DHT22;31439;53.512;10.206;2023-09-30T12:01:38;19.30;99.90
45729;DHT22;31439;53.512;10.206;2023-09-30T12:04:04;19.20;99.90
45729;DHT22;31439;53.512;10.206;2023-09-30T12:06:30;19.30;99.90
45729;DHT22;31439;53.512;10.206;2023-09-30T12:08:55;19.30;99.90
45729;DHT22;31439;53.512;10.206;2023-09-30T12:11:24;19.40;99.90
45729;DHT22;31439;53.512;10.206;2023-09-30T12:13:50;19.50;99.90
45729;DHT22;31439;53.512;10.206;2023-09-30T12:16:18;19.50;99.90
45729;DHT22;31439;53.512;10.206;2023-09-30T12:18:45;19.60;99.90
45729;DHT22;31439;53.512;10.206;2023-09-30T12:21:11;19.50;99.90
45729;DHT22;31439;53.512;10.206;2023-09-30T12:23:39;19.70;99.90
45729;DHT22;31439;53.512;10.206;2023-09-30T12:26:25;19.50;99.90
45729;DHT22;31439;53.512;10.206;2023-09-30T12:58:35;19.10;99.90
45729;DHT22;31439;53.512;10.206;2023-09-30T13:01:29;18.30;99.90
45729;DHT22;31439;53.512;10.206;2023-09-30T13:04:42;19.10;99.90
45729;DHT22;31439;53.512;10.206;2023-09-30T13:07:55;20.00;99.90
45729;DHT22;31439;53.512;10.206;2023-09-30T13:10:53;18.60;99.90
45729;DHT22;31439;53.512;10.206;2023-09-30T13:20:34;18.60;99.90
45729;DHT22;31439;53.512;10.206;2023-09-30T13:30:32;18.40;99.90
45729;DHT22;31439;53.512;10.206;2023-09-30T13:33:08;18.90;99.90
45729;DHT22;31439;53.512;10.206;2023-09-30T13:35:44;18.50;99.90
45729;DHT22;31439;53.512;10.206;2023-09-30T13:38:15;18.60;99.90
45729;DHT22;31439;53.512;10.206;2023-09-30T13:41:15;18.60;99.90
45729;DHT22;31439;53.512;10.206;2023-09-30T13:43:58;18.50;99.90
45729;DHT22;31439;53.512;10.206;2023-09-30T13:49:32;18.60;99.90
45729;DHT22;31439;53.512;10.206;2023-09-30T13:52:08;18.60;99.90
45729;DHT22;31439;53.512;10.206;2023-09-30T13:54:36;18.70;99.90
45729;DHT22;31439;53.512;10.206;2023-09-30T13:57:18;18.70;99.90
45729;DHT22;31439;53.512;10.206;2023-09-30T14:00:03;18.70;99.90
45729;DHT22;31439;53.512;10.206;2023-09-30T14:06:02;18.70;99.90
45729;DHT22;31439;53.512;10.206;2023-09-30T14:12:07;18.30;99.90
45729;DHT22;31439;53.512;10.206;2023-09-30T14:17:41;18.60;99.90
45729;DHT22;31439;53.512;10.206;2023-09-30T14:20:09;18.80;99.90
45729;DHT22;31439;53.512;10.206;2023-09-30T14:22:35;18.70;99.90
45729;DHT22;31439;53.512;10.206;2023-09-30T14:25:01;17.80;99.90
45729;DHT22;31439;53.512;10.206;2023-09-30T14:27:26;18.70;99.90
45729;DHT22;31439;53.512;10.206;2023-09-30T14:57:07;18.00;99.90
45729;DHT22;31439;53.512;10.206;2023-09-30T15:05:16;18.20;99.90
45729;DHT22;31439;53.512;10.206;2023-09-30T15:24:02;17.70;99.90
45729;DHT22;31439;53.512;10.206;2023-09-30T15:26:57;17.90;99.90
45729;DHT22;31439;53.512;10.206;2023-09-30T15:29:45;18.10;99.90
45729;DHT22;31439;53.512;10.206;2023-09-30T15:32:11;18.20;99.90
45729;DHT22;31439;53.512;10.206;2023-09-30T15:34:37;18.10;99.90
45729;DHT22;31439;53.512;10.206;2023-09-30T15:37:06;18.10;99.90
45729;DHT22;31439;53.512;10.206;2023-09-30T15:39:40;18.10;99.90
45729;DHT22;31439;53.512;10.206;2023-09-30T15:42:11;19.00;99.90
45729;DHT22;31439;53.512;10.206;2023-09-30T15:44:39;18.10;99.90
45729;DHT22;31439;53.512;10.206;2023-09-30T15:47:08;18.20;99.90
45729;DHT22;31439;53.512;10.206;2023-09-30T15:49:35;18.10;99.90
45729;DHT22;31439;53.512;10.206;2023-09-30T15:52:01;18.10;99.90
45729;DHT22;31439;53.512;10.206;2023-09-30T15:54:27;18.10;99.90
45729;DHT22;31439;53.512;10.206;2023-09-30T15:56:52;18.10;99.90
45729;DHT22;31439;53.512;10.206;2023-09-30T15:59:18;18.10;99.90
45729;DHT22;31439;53.512;10.206;2023-09-30T16:01:44;18.10;99.90
45729;DHT22;31439;53.512;10.206;2023-09-30T16:04:09;18.10;99.90
45729;DHT22;31439;53.512;10.206;2023-09-30T16:06:35;18.10;99.90
45729;DHT22;31439;53.512;10.206;2023-09-30T16:09:01;18.00;99.90
45729;DHT22;31439;53.512;10.206;2023-09-30T16:11:27;18.00;99.90
45729;DHT22;31439;53.512;10.206;2023-09-30T16:13:53;17.90;99.90
45729;DHT22;31439;53.512;10.206;2023-09-30T16:16:19;17.90;99.90
45729;DHT22;31439;53.512;10.206;2023-09-30T16:18:45;17.90;99.90
45729;DHT22;31439;53.512;10.206;2023-09-30T16:21:10;17.80;99.90
45729;DHT22;31439;53.512;10.206;2023-09-30T16:23:36;17.90;99.90
45729;DHT22;31439;53.512;10.206;2023-09-30T16:26:02;17.80;99.90
45729;DHT22;31439;53.512;10.206;2023-09-30T16:28:27;17.80;99.90
45729;DHT22;31439;53.512;10.206;2023-09-30T16:30:54;17.80;99.90
45729;DHT22;31439;53.512;10.206;2023-09-30T16:33:20;17.80;99.90
45729;DHT22;31439;53.512;10.206;2023-09-30T16:35:51;17.10;99.90
45729;DHT22;31439;53.512;10.206;2023-09-30T16:38:18;17.70;99.90
45729;DHT22;31439;53.512;10.206;2023-09-30T16:41:01;17.70;99.90
45729;DHT22;31439;53.512;10.206;2023-09-30T16:43:27;17.70;99.90
45729;DHT22;31439;53.512;10.206;2023-09-30T16:45:53;17.70;99.90
45729;DHT22;31439;53.512;10.206;2023-09-30T16:48:19;17.60;99.90
45729;DHT22;31439;53.512;10.206;2023-09-30T16:50:45;17.60;99.90
45729;DHT22;31439;53.512;10.206;2023-09-30T16:53:11;17.60;99.90
45729;DHT22;31439;53.512;10.206;2023-09-30T16:55:37;17.60;99.90
45729;DHT22;31439;53.512;10.206;2023-09-30T16:58:03;17.60;99.90
45729;DHT22;31439;53.512;10.206;2023-09-30T17:00:28;17.50;99.90
45729;DHT22;31439;53.512;10.206;2023-09-30T17:02:55;17.50;99.90
45729;DHT22;31439;53.512;10.206;2023-09-30T17:05:20;17.40;99.90
45729;DHT22;31439;53.512;10.206;2023-09-30T17:07:46;17.50;99.90
45729;DHT22;31439;53.512;10.206;2023-09-30T17:10:12;17.40;99.90
45729;DHT22;31439;53.512;10.206;2023-09-30T17:12:38;17.40;99.90
45729;DHT22;31439;53.512;10.206;2023-09-30T17:15:05;17.30;99.90
45729;DHT22;31439;53.512;10.206;2023-09-30T17:17:32;17.30;99.90
45729;DHT22;31439;53.512;10.206;2023-09-30T17:19:58;17.20;99.90